createdAt,value
2018-11-26T00:00:39.639Z,9.55
2018-11-26T00:03:14.042Z,8.60
2018-11-26T00:05:48.484Z,8.75
2018-11-26T00:08:22.944Z,8.00
2018-11-26T00:12:02.918Z,8.13
2018-11-26T00:14:37.481Z,8.73
2018-11-26T00:17:11.798Z,7.72
2018-11-26T00:19:46.262Z,8.90
2018-11-26T00:22:20.757Z,8.38
2018-11-26T00:24:55.217Z,7.78
2018-11-26T00:27:29.567Z,8.58
2018-11-26T00:30:03.978Z,9.13
2018-11-26T00:32:38.451Z,7.50
2018-11-26T00:35:13.016Z,7.80
2018-11-26T00:37:47.579Z,9.30
2018-11-26T00:40:22.201Z,9.38
2018-11-26T00:42:56.641Z,9.30
2018-11-26T00:45:31.077Z,7.90
2018-11-26T00:48:05.544Z,8.30
2018-11-26T00:50:40.116Z,8.40
2018-11-26T00:53:14.635Z,8.20
2018-11-26T00:55:49.205Z,8.20
2018-11-26T00:58:23.853Z,8.88
2018-11-26T01:00:58.454Z,9.83
2018-11-26T01:03:32.999Z,9.85
2018-11-26T01:06:07.501Z,11.35
2018-11-26T01:08:41.950Z,9.33
2018-11-26T01:11:16.335Z,7.62
2018-11-26T01:13:50.718Z,8.73
2018-11-26T01:16:25.166Z,8.75
2018-11-26T01:18:59.543Z,8.15
2018-11-26T01:21:34.655Z,8.03
2018-11-26T01:24:08.522Z,7.70
2018-11-26T01:26:43.078Z,8.33
2018-11-26T01:29:17.671Z,8.60
2018-11-26T01:31:52.159Z,7.83
2018-11-26T01:34:26.742Z,8.05
2018-11-26T01:37:01.183Z,7.90
2018-11-26T01:39:35.766Z,8.78
2018-11-26T01:42:10.253Z,7.58
2018-11-26T01:44:44.748Z,7.85
2018-11-26T01:47:19.290Z,7.22
2018-11-26T01:49:53.855Z,7.58
2018-11-26T01:52:28.382Z,7.25
2018-11-26T01:55:03.000Z,7.35
2018-11-26T01:57:37.418Z,7.80
2018-11-26T02:00:15.495Z,7.75
2018-11-26T02:02:49.811Z,8.43
2018-11-26T02:05:24.260Z,9.43
2018-11-26T02:07:58.868Z,8.18
2018-11-26T02:10:33.302Z,8.08
2018-11-26T02:13:07.895Z,9.18
2018-11-26T02:15:42.822Z,9.00
2018-11-26T02:18:17.253Z,10.45
2018-11-26T02:20:51.838Z,8.53
2018-11-26T02:23:26.362Z,7.90
2018-11-26T02:26:00.959Z,8.03
2018-11-26T02:28:35.506Z,8.55
2018-11-26T02:31:10.095Z,8.05
2018-11-26T02:33:44.484Z,8.40
2018-11-26T02:36:18.896Z,8.03
2018-11-26T02:38:53.456Z,7.80
2018-11-26T02:41:27.808Z,8.20
2018-11-26T02:44:02.279Z,8.00
2018-11-26T02:46:36.783Z,9.25
2018-11-26T02:49:11.290Z,7.53
2018-11-26T02:51:45.686Z,7.30
2018-11-26T02:54:20.144Z,7.83
2018-11-26T02:56:54.560Z,8.38
2018-11-26T02:59:29.104Z,7.97
2018-11-26T03:02:03.621Z,7.80
2018-11-26T03:04:39.076Z,7.30
2018-11-26T03:07:13.496Z,8.13
2018-11-26T03:09:48.021Z,8.48
2018-11-26T03:12:22.423Z,7.87
2018-11-26T03:14:56.962Z,10.45
2018-11-26T03:17:31.270Z,9.55
2018-11-26T03:20:06.835Z,10.05
2018-11-26T03:22:41.467Z,8.15
2018-11-26T03:25:15.954Z,7.72
2018-11-26T03:27:50.487Z,7.70
2018-11-26T03:30:24.843Z,7.03
2018-11-26T03:32:59.303Z,8.15
2018-11-26T03:35:33.813Z,7.75
2018-11-26T03:38:11.800Z,8.13
2018-11-26T03:40:46.366Z,7.80
2018-11-26T03:43:21.027Z,7.72
2018-11-26T03:45:55.487Z,6.87
2018-11-26T03:48:29.782Z,8.05
2018-11-26T03:51:04.420Z,7.95
2018-11-26T03:53:38.978Z,7.45
2018-11-26T03:56:13.515Z,7.20
2018-11-26T03:58:47.913Z,7.00
2018-11-26T04:01:22.534Z,6.87
2018-11-26T04:03:57.135Z,7.37
2018-11-26T04:06:31.627Z,7.67
2018-11-26T04:09:07.641Z,7.05
2018-11-26T04:11:42.148Z,6.17
2018-11-26T04:14:16.811Z,6.10
2018-11-26T04:16:51.208Z,7.40
2018-11-26T04:19:25.637Z,7.40
2018-11-26T04:22:00.129Z,8.03
2018-11-26T04:24:34.464Z,15.53
2018-11-26T04:27:08.999Z,8.63
2018-11-26T04:29:43.599Z,18.17
2018-11-26T04:32:18.016Z,7.30
2018-11-26T04:34:52.587Z,13.70
2018-11-26T04:37:27.089Z,10.90
2018-11-26T04:40:01.693Z,21.37
2018-11-26T04:42:36.339Z,8.45
2018-11-26T04:45:10.860Z,7.42
2018-11-26T04:47:45.176Z,8.25
2018-11-26T04:50:19.644Z,6.55
2018-11-26T04:52:54.120Z,8.18
2018-11-26T04:55:28.665Z,10.28
2018-11-26T04:58:03.245Z,9.80
2018-11-26T05:00:38.830Z,8.90
2018-11-26T05:03:13.377Z,7.90
2018-11-26T05:05:47.768Z,6.50
2018-11-26T05:08:22.198Z,7.15
2018-11-26T05:10:56.760Z,6.60
2018-11-26T05:13:31.136Z,6.92
2018-11-26T05:16:06.147Z,6.70
2018-11-26T05:18:40.947Z,7.78
2018-11-26T05:21:15.772Z,10.53
2018-11-26T05:23:50.618Z,9.15
2018-11-26T05:26:25.047Z,7.40
2018-11-26T05:28:59.382Z,7.83
2018-11-26T05:31:33.738Z,7.80
2018-11-26T05:34:08.164Z,9.03
2018-11-26T05:36:42.524Z,8.15
2018-11-26T05:39:17.058Z,7.53
2018-11-26T05:41:51.654Z,7.30
2018-11-26T05:44:26.132Z,6.78
2018-11-26T05:47:00.751Z,5.90
2018-11-26T05:49:35.357Z,6.90
2018-11-26T05:52:10.031Z,7.22
2018-11-26T05:54:44.531Z,6.92
2018-11-26T05:57:21.200Z,6.15
2018-11-26T05:59:55.716Z,6.75
2018-11-26T06:02:30.255Z,7.75
2018-11-26T06:05:04.964Z,6.40
2018-11-26T06:07:39.437Z,6.53
2018-11-26T06:10:13.877Z,7.58
2018-11-26T06:12:48.354Z,6.75
2018-11-26T06:15:23.038Z,7.65
2018-11-26T06:17:57.479Z,7.40
2018-11-26T06:20:34.025Z,14.38
2018-11-26T06:23:08.496Z,13.45
2018-11-26T06:25:43.003Z,13.53
2018-11-26T06:28:17.324Z,6.83
2018-11-26T06:30:51.812Z,5.90
2018-11-26T06:33:26.128Z,5.92
2018-11-26T06:36:00.778Z,6.55
2018-11-26T06:38:35.080Z,6.25
2018-11-26T06:41:09.446Z,5.85
2018-11-26T06:43:43.800Z,6.05
2018-11-26T06:46:18.273Z,6.20
2018-11-26T06:48:52.754Z,6.80
2018-11-26T06:51:27.214Z,6.53
2018-11-26T06:54:01.722Z,7.47
2018-11-26T06:56:36.247Z,8.20
2018-11-26T06:59:10.576Z,10.38
2018-11-26T07:01:45.159Z,10.58
2018-11-26T07:04:19.505Z,7.62
2018-11-26T07:06:53.795Z,7.45
2018-11-26T07:09:28.192Z,6.97
2018-11-26T07:12:02.613Z,8.28
2018-11-26T07:14:37.248Z,8.65
2018-11-26T07:17:11.788Z,6.17
2018-11-26T07:19:46.395Z,6.95
2018-11-26T07:22:20.760Z,7.17
2018-11-26T07:24:55.166Z,8.98
2018-11-26T07:27:29.657Z,8.58
2018-11-26T07:30:04.346Z,8.00
2018-11-26T07:32:38.916Z,10.10
2018-11-26T07:35:14.221Z,6.42
2018-11-26T07:37:48.588Z,6.55
2018-11-26T07:40:23.566Z,7.47
2018-11-26T07:43:01.701Z,8.80
2018-11-26T07:45:36.143Z,6.97
2018-11-26T07:48:16.541Z,7.28
2018-11-26T07:50:50.939Z,6.92
2018-11-26T07:53:25.487Z,7.47
2018-11-26T07:55:59.889Z,7.72
2018-11-26T07:58:34.419Z,7.25
2018-11-26T08:01:08.985Z,7.10
2018-11-26T08:03:53.305Z,11.15
2018-11-26T08:06:27.944Z,7.78
2018-11-26T08:09:02.306Z,9.80
2018-11-26T08:11:36.718Z,8.40
2018-11-26T08:14:11.171Z,9.00
2018-11-26T08:16:46.779Z,7.97
2018-11-26T08:19:21.179Z,7.67
2018-11-26T08:21:55.759Z,6.62
2018-11-26T08:24:30.262Z,12.80
2018-11-26T08:27:05.184Z,12.90
2018-11-26T08:29:39.627Z,9.68
2018-11-26T08:32:13.997Z,10.25
2018-11-26T08:34:48.603Z,11.10
2018-11-26T08:37:28.621Z,6.70
2018-11-26T08:40:08.511Z,6.60
2018-11-26T08:42:48.444Z,8.58
2018-11-26T08:45:28.263Z,7.10
2018-11-26T08:48:06.039Z,7.10
2018-11-26T08:50:40.399Z,6.45
2018-11-26T08:53:15.078Z,7.03
2018-11-26T08:55:49.728Z,6.65
2018-11-26T08:58:24.272Z,6.97
2018-11-26T09:01:04.737Z,7.20
2018-11-26T09:03:44.707Z,6.40
2018-11-26T09:06:19.244Z,6.80
2018-11-26T09:08:53.727Z,5.10
2018-11-26T09:11:30.072Z,4.90
2018-11-26T09:14:05.023Z,5.40
2018-11-26T09:16:39.741Z,5.53
2018-11-26T09:19:14.192Z,6.50
2018-11-26T09:21:48.729Z,7.10
2018-11-26T09:24:23.139Z,6.33
2018-11-26T09:26:57.543Z,5.80
2018-11-26T09:29:32.149Z,6.08
2018-11-26T09:32:07.030Z,6.95
2018-11-26T09:34:41.555Z,12.73
2018-11-26T09:37:16.010Z,7.47
2018-11-26T09:39:51.490Z,5.17
2018-11-26T09:42:25.924Z,5.58
2018-11-26T09:45:00.337Z,6.60
2018-11-26T09:47:34.752Z,5.50
2018-11-26T09:50:14.351Z,5.78
2018-11-26T09:52:48.721Z,7.15
2018-11-26T09:55:23.141Z,6.15
2018-11-26T09:57:57.560Z,5.80
2018-11-26T10:00:32.265Z,5.12
2018-11-26T10:03:06.995Z,5.37
2018-11-26T10:05:41.387Z,7.95
2018-11-26T10:08:17.820Z,5.70
2018-11-26T10:10:52.179Z,5.35
2018-11-26T10:13:26.753Z,6.75
2018-11-26T10:16:01.176Z,8.30
2018-11-26T10:18:36.762Z,12.03
2018-11-26T10:21:11.154Z,15.55
2018-11-26T10:23:47.704Z,7.67
2018-11-26T10:26:22.133Z,8.43
2018-11-26T10:28:56.873Z,7.03
2018-11-26T10:31:31.251Z,5.25
2018-11-26T10:34:05.552Z,4.40
2018-11-26T10:36:41.143Z,6.17
2018-11-26T10:39:14.921Z,5.70
2018-11-26T10:41:51.516Z,6.33
2018-11-26T10:44:26.074Z,4.85
2018-11-26T10:47:00.417Z,4.90
2018-11-26T10:49:34.720Z,6.05
2018-11-26T10:52:09.051Z,6.55
2018-11-26T10:54:48.133Z,6.85
2018-11-26T10:57:21.918Z,9.23
2018-11-26T10:59:56.428Z,7.20
2018-11-26T11:02:37.434Z,8.53
2018-11-26T11:05:11.838Z,5.97
2018-11-26T11:07:46.192Z,4.78
2018-11-26T11:10:21.848Z,4.12
2018-11-26T11:12:56.327Z,4.65
2018-11-26T11:15:37.013Z,4.10
2018-11-26T11:18:11.311Z,5.40
2018-11-26T11:20:45.639Z,4.95
2018-11-26T11:23:19.991Z,4.20
2018-11-26T11:25:54.368Z,3.65
2018-11-26T11:28:29.109Z,3.00
2018-11-26T11:31:03.537Z,3.35
2018-11-26T11:33:39.958Z,3.80
2018-11-26T11:36:14.290Z,3.15
2018-11-26T11:38:48.596Z,2.90
2018-11-26T11:41:22.933Z,3.80
2018-11-26T11:43:57.469Z,3.70
2018-11-26T11:46:32.910Z,2.60
2018-11-26T11:49:07.359Z,3.55
2018-11-26T11:51:41.860Z,2.35
2018-11-26T11:54:16.182Z,4.10
2018-11-26T11:56:50.633Z,4.15
2018-11-26T11:59:24.999Z,4.05
2018-11-26T12:01:59.454Z,4.03
2018-11-26T12:04:33.953Z,3.12
2018-11-26T12:07:08.459Z,2.50
2018-11-26T12:09:50.078Z,2.70
2018-11-26T12:12:24.509Z,2.72
2018-11-26T12:14:59.243Z,3.02
2018-11-26T12:17:33.778Z,2.50
2018-11-26T12:20:09.814Z,2.77
2018-11-26T12:22:44.824Z,1.92
2018-11-26T12:25:20.371Z,2.15
2018-11-26T12:27:56.778Z,1.82
2018-11-26T12:30:32.750Z,1.50
2018-11-26T12:33:07.340Z,2.15
2018-11-26T12:35:41.951Z,1.47
2018-11-26T12:38:16.500Z,2.30
2018-11-26T12:40:51.021Z,2.05
2018-11-26T12:43:25.422Z,2.47
2018-11-26T12:45:59.840Z,1.85
2018-11-26T12:48:34.182Z,3.12
2018-11-26T12:51:08.629Z,2.50
2018-11-26T12:53:47.013Z,4.08
2018-11-26T12:56:26.942Z,3.45
2018-11-26T12:59:01.509Z,1.65
2018-11-26T13:01:37.233Z,6.05
2018-11-26T13:04:11.657Z,5.58
2018-11-26T13:06:46.150Z,3.83
2018-11-26T13:09:20.618Z,5.42
2018-11-26T13:11:55.252Z,2.60
2018-11-26T13:14:29.707Z,4.65
2018-11-26T13:17:04.193Z,1.82
2018-11-26T13:19:38.944Z,1.75
2018-11-26T13:22:13.965Z,2.67
2018-11-26T13:24:48.411Z,2.10
2018-11-26T13:27:22.849Z,1.82
2018-11-26T13:29:57.226Z,2.40
2018-11-26T13:32:31.614Z,2.05
2018-11-26T13:35:07.988Z,2.40
2018-11-26T13:37:42.477Z,2.25
2018-11-26T13:40:17.842Z,1.60
2018-11-26T13:42:52.562Z,1.85
2018-11-26T13:45:30.385Z,2.75
2018-11-26T13:48:06.415Z,4.72
2018-11-26T13:50:43.935Z,6.53
2018-11-26T13:53:18.565Z,8.95
2018-11-26T13:55:52.910Z,4.67
2018-11-26T13:58:27.385Z,5.10
2018-11-26T14:01:01.905Z,1.77
2018-11-26T14:03:36.287Z,3.87
2018-11-26T14:06:10.768Z,1.40
2018-11-26T14:08:45.191Z,2.20
2018-11-26T14:11:19.587Z,1.67
2018-11-26T14:13:54.155Z,1.90
2018-11-26T14:16:28.709Z,1.60
2018-11-26T14:19:03.223Z,2.90
2018-11-26T14:21:37.594Z,2.10
2018-11-26T14:24:12.070Z,1.87
2018-11-26T14:26:46.469Z,1.92
2018-11-26T14:29:20.853Z,2.27
2018-11-26T14:31:55.340Z,1.90
2018-11-26T14:34:29.948Z,3.00
2018-11-26T14:37:04.509Z,1.70
2018-11-26T14:39:38.881Z,1.82
2018-11-26T14:42:13.321Z,1.70
2018-11-26T14:44:47.817Z,1.85
2018-11-26T14:47:22.137Z,1.90
2018-11-26T14:49:56.547Z,1.67
2018-11-26T14:52:31.190Z,1.50
2018-11-26T14:55:08.041Z,1.55
2018-11-26T14:57:42.375Z,2.70
2018-11-26T15:00:17.738Z,2.05
2018-11-26T15:02:52.237Z,1.52
2018-11-26T15:05:26.616Z,1.60
2018-11-26T15:08:01.156Z,3.22
2018-11-26T15:10:35.656Z,1.25
2018-11-26T15:13:10.664Z,2.30
2018-11-26T15:15:45.405Z,1.15
2018-11-26T15:18:19.805Z,1.05
2018-11-26T15:20:54.290Z,2.25
2018-11-26T15:23:28.933Z,1.35
2018-11-26T15:26:03.639Z,1.30
2018-11-26T15:28:38.137Z,1.87
2018-11-26T15:31:12.789Z,2.25
2018-11-26T15:33:47.322Z,1.50
2018-11-26T15:36:22.938Z,2.15
2018-11-26T15:38:57.344Z,1.60
2018-11-26T15:41:32.011Z,2.87
2018-11-26T15:44:06.838Z,1.90
2018-11-26T15:46:41.405Z,2.85
2018-11-26T15:49:15.867Z,1.72
2018-11-26T15:51:50.212Z,3.45
2018-11-26T15:54:24.665Z,2.83
2018-11-26T15:56:59.208Z,2.00
2018-11-26T15:59:33.835Z,1.92
2018-11-26T16:02:08.219Z,2.70
2018-11-26T16:04:42.666Z,29.02
2018-11-26T16:07:17.243Z,5.70
2018-11-26T16:09:51.660Z,2.85
2018-11-26T16:12:26.119Z,15.20
2018-11-26T16:15:00.613Z,15.95
2018-11-26T16:17:34.931Z,8.55
2018-11-26T16:20:15.727Z,68.33
2018-11-26T16:22:50.363Z,23.98
2018-11-26T16:25:25.241Z,6.50
2018-11-26T16:27:59.678Z,3.02
2018-11-26T16:30:34.037Z,3.67
2018-11-26T16:33:09.393Z,2.90
2018-11-26T16:35:43.991Z,3.75
2018-11-26T16:38:18.684Z,2.83
2018-11-26T16:40:53.191Z,2.98
2018-11-26T16:43:27.531Z,4.08
2018-11-26T16:46:01.786Z,3.20
2018-11-26T16:48:36.162Z,3.40
2018-11-26T16:51:10.637Z,3.75
2018-11-26T16:53:45.110Z,3.45
2018-11-26T16:56:19.815Z,3.95
2018-11-26T16:58:54.494Z,4.05
2018-11-26T17:01:33.811Z,4.40
2018-11-26T17:04:08.243Z,4.50
2018-11-26T17:06:42.579Z,7.40
2018-11-26T17:09:16.952Z,6.37
2018-11-26T17:11:51.668Z,7.00
2018-11-26T17:14:26.332Z,13.43
2018-11-26T17:17:01.783Z,15.75
2018-11-26T17:19:36.362Z,8.70
2018-11-26T17:22:10.759Z,10.08
2018-11-26T17:24:45.434Z,33.30
2018-11-26T17:27:19.849Z,24.98
2018-11-26T17:29:54.512Z,13.88
2018-11-26T17:32:29.135Z,17.32
2018-11-26T17:35:03.647Z,11.88
2018-11-26T17:37:42.647Z,9.20
2018-11-26T17:40:15.049Z,9.55
2018-11-26T17:42:49.768Z,7.08
2018-11-26T17:45:24.896Z,9.83
2018-11-26T17:48:00.085Z,13.58
2018-11-26T17:50:36.764Z,9.13
2018-11-26T17:53:14.099Z,11.12
2018-11-26T17:55:50.567Z,7.00
2018-11-26T17:58:26.530Z,5.62
2018-11-26T18:01:29.727Z,4.20
2018-11-26T18:04:04.173Z,12.95
2018-11-26T18:06:38.651Z,9.25
2018-11-26T18:09:13.302Z,28.52
2018-11-26T18:11:48.417Z,31.97
2018-11-26T18:14:23.394Z,21.17
2018-11-26T18:16:57.890Z,21.35
2018-11-26T18:19:33.885Z,15.63
2018-11-26T18:22:08.428Z,12.07
2018-11-26T18:24:43.235Z,16.17
2018-11-26T18:27:18.176Z,7.45
2018-11-26T18:29:53.694Z,5.00
2018-11-26T18:32:28.235Z,4.03
2018-11-26T18:35:04.138Z,5.22
2018-11-26T18:37:38.789Z,6.83
2018-11-26T18:40:15.684Z,6.87
2018-11-26T18:42:50.327Z,7.20
2018-11-26T18:45:24.881Z,7.50
2018-11-26T18:47:59.177Z,15.45
2018-11-26T18:50:33.642Z,10.45
2018-11-26T18:53:08.677Z,7.55
2018-11-26T18:55:43.514Z,5.97
2018-11-26T18:58:18.162Z,4.95
2018-11-26T19:00:54.941Z,7.17
2018-11-26T19:03:29.852Z,9.45
2018-11-26T19:06:06.925Z,16.65
2018-11-26T19:08:41.658Z,21.27
2018-11-26T19:11:17.573Z,21.82
2018-11-26T19:13:55.339Z,30.12
2018-11-26T19:16:33.736Z,24.07
2018-11-26T19:19:08.572Z,20.70
2018-11-26T19:21:43.211Z,11.93
2018-11-26T19:24:18.117Z,15.45
2018-11-26T19:26:52.806Z,10.13
2018-11-26T19:29:27.415Z,8.43
2018-11-26T19:32:01.977Z,7.42
2018-11-26T19:34:36.649Z,8.55
2018-11-26T19:37:11.378Z,7.83
2018-11-26T19:39:46.015Z,9.20
2018-11-26T19:42:20.719Z,18.65
2018-11-26T19:44:55.601Z,13.28
2018-11-26T19:47:30.192Z,17.75
2018-11-26T19:50:05.228Z,28.85
2018-11-26T19:52:46.441Z,38.38
2018-11-26T19:55:22.145Z,26.57
2018-11-26T19:57:57.725Z,17.17
2018-11-26T20:00:34.295Z,12.07
2018-11-26T20:03:19.212Z,14.95
2018-11-26T20:06:03.482Z,20.00
2018-11-26T20:08:38.388Z,17.55
2018-11-26T20:11:13.033Z,15.58
2018-11-26T20:13:47.643Z,10.23
2018-11-26T20:16:32.207Z,10.45
2018-11-26T20:19:06.947Z,9.68
2018-11-26T20:21:41.357Z,8.78
2018-11-26T20:24:16.928Z,9.40
2018-11-26T20:26:51.364Z,11.05
2018-11-26T20:29:26.041Z,10.23
2018-11-26T20:32:00.568Z,12.63
2018-11-26T20:34:37.135Z,8.85
2018-11-26T20:37:11.642Z,7.30
2018-11-26T20:39:46.194Z,5.45
2018-11-26T20:42:20.803Z,6.60
2018-11-26T20:44:55.365Z,5.42
2018-11-26T20:47:29.751Z,5.80
2018-11-26T20:50:08.452Z,4.62
2018-11-26T20:52:42.911Z,4.87
2018-11-26T20:55:18.529Z,5.22
2018-11-26T20:57:55.007Z,5.20
2018-11-26T21:00:29.625Z,14.25
2018-11-26T21:03:08.775Z,16.15
2018-11-26T21:05:43.320Z,9.25
2018-11-26T21:08:17.845Z,9.25
2018-11-26T21:10:52.266Z,5.90
2018-11-26T21:13:26.757Z,8.43
2018-11-26T21:16:01.339Z,6.05
2018-11-26T21:18:35.877Z,7.17
2018-11-26T21:21:10.523Z,6.10
2018-11-26T21:23:45.109Z,5.95
2018-11-26T21:26:19.534Z,5.47
2018-11-26T21:28:54.149Z,11.97
2018-11-26T21:31:28.876Z,27.37
2018-11-26T21:34:03.361Z,11.55
2018-11-26T21:36:37.816Z,14.20
2018-11-26T21:39:12.237Z,27.75
2018-11-26T21:41:46.849Z,11.00
2018-11-26T21:44:21.491Z,13.25
2018-11-26T21:46:55.945Z,36.25
2018-11-26T21:49:30.439Z,15.25
2018-11-26T21:52:04.993Z,11.73
2018-11-26T21:54:39.473Z,10.82
2018-11-26T21:57:14.192Z,10.63
2018-11-26T21:59:48.795Z,9.50
2018-11-26T22:02:23.209Z,9.25
2018-11-26T22:04:57.709Z,9.85
2018-11-26T22:07:32.358Z,8.53
2018-11-26T22:10:11.272Z,7.20
2018-11-26T22:12:47.204Z,12.13
2018-11-26T22:15:21.860Z,12.20
2018-11-26T22:17:56.131Z,11.15
2018-11-26T22:20:31.233Z,14.47
2018-11-26T22:23:06.476Z,13.50
2018-11-26T22:25:41.007Z,7.42
2018-11-26T22:28:15.360Z,7.80
2018-11-26T22:30:50.088Z,6.15
2018-11-26T22:33:24.689Z,5.03
2018-11-26T22:35:59.201Z,7.17
2018-11-26T22:38:33.682Z,4.90
2018-11-26T22:41:08.071Z,6.00
2018-11-26T22:43:42.548Z,5.47
2018-11-26T22:46:17.219Z,5.30
2018-11-26T22:48:51.608Z,5.05
2018-11-26T22:51:26.036Z,4.75
2018-11-26T22:54:00.642Z,5.10
2018-11-26T22:56:35.116Z,5.65
2018-11-26T22:59:09.673Z,4.85
2018-11-26T23:01:43.990Z,5.08
2018-11-26T23:04:18.424Z,5.45
2018-11-26T23:06:53.024Z,4.65
2018-11-26T23:09:27.477Z,4.87
2018-11-26T23:12:02.038Z,5.12
2018-11-26T23:14:36.435Z,5.10
2018-11-26T23:17:10.712Z,4.97
2018-11-26T23:19:45.062Z,4.20
2018-11-26T23:22:19.375Z,4.25
2018-11-26T23:24:53.746Z,5.92
2018-11-26T23:27:28.297Z,11.68
2018-11-26T23:30:02.754Z,11.60
2018-11-26T23:32:37.075Z,7.65
2018-11-26T23:35:11.479Z,4.60
2018-11-26T23:37:46.101Z,3.85
2018-11-26T23:40:20.511Z,5.05
2018-11-26T23:42:55.099Z,4.20
2018-11-26T23:45:29.770Z,3.90
2018-11-26T23:48:04.403Z,4.17
2018-11-26T23:50:39.017Z,3.75
2018-11-26T23:53:13.290Z,3.98
2018-11-26T23:55:47.795Z,3.67
2018-11-26T23:58:22.124Z,5.10
